DK-0026 weather

S√łnder Felding Flyveplads
Denmark

Public forecast

Using degrees Celsius for public forecast. Weather courtesy of forecast.io.

METAR (pilot weather report)

Closest report is Stauning Airport, 13.3 nm (24.7 km) WNW. Retrieved 2019/05/21 13:50 UTC (28 minutes ago):

EKVJ 211350Z 30011KT 8000 FEW005 BKN020 17/15 Q1008

TAF (pilot weather forecast)

Closest forecast is Billund Airport, 18.5 nm (34.3 km) SE. Retrieved 2019/05/21 12:00 UTC (2 hours ago):

TAF EKBI 211012Z 2112/2212 31008KT 9999 SCT015 TEMPO 2112/2203 4000 SHRA BKN008 SCT020CB PROB40 TEMPO 2112/2118 TSRA BECMG 2203/2205 2000 BR BKN004 TEMPO 2205/2208 5000 BKN006 BECMG 2208/2210 9999 NSW BKN015